sensor_id;sensor_type;location;lat;lon;timestamp;P1;durP1;ratioP1;P2;durP2;ratioP2
36001;SDS011;22070;50.922;5.430;2023-02-01T00:01:55;23.58;;;5.82;;
36001;SDS011;22070;50.922;5.430;2023-02-01T00:04:21;23.63;;;6.53;;
36001;SDS011;22070;50.922;5.430;2023-02-01T00:06:47;16.25;;;6.88;;
36001;SDS011;22070;50.922;5.430;2023-02-01T00:09:13;23.50;;;7.77;;
36001;SDS011;22070;50.922;5.430;2023-02-01T00:11:38;20.47;;;7.80;;
36001;SDS011;22070;50.922;5.430;2023-02-01T00:14:05;24.10;;;7.85;;
36001;SDS011;22070;50.922;5.430;2023-02-01T00:16:31;26.73;;;8.80;;
36001;SDS011;22070;50.922;5.430;2023-02-01T00:18:58;22.83;;;7.55;;
36001;SDS011;22070;50.922;5.430;2023-02-01T00:21:26;29.02;;;10.05;;
36001;SDS011;22070;50.922;5.430;2023-02-01T00:23:52;18.43;;;9.20;;
36001;SDS011;22070;50.922;5.430;2023-02-01T00:26:19;17.50;;;8.60;;
36001;SDS011;22070;50.922;5.430;2023-02-01T00:28:49;25.98;;;9.32;;
36001;SDS011;22070;50.922;5.430;2023-02-01T00:31:15;33.75;;;10.35;;
36001;SDS011;22070;50.922;5.430;2023-02-01T00:33:41;28.42;;;11.90;;
36001;SDS011;22070;50.922;5.430;2023-02-01T00:36:07;24.42;;;10.73;;
36001;SDS011;22070;50.922;5.430;2023-02-01T00:38:36;24.70;;;9.88;;
36001;SDS011;22070;50.922;5.430;2023-02-01T00:41:03;30.48;;;10.60;;
36001;SDS011;22070;50.922;5.430;2023-02-01T00:43:31;35.85;;;9.95;;
36001;SDS011;22070;50.922;5.430;2023-02-01T00:45:57;29.10;;;10.73;;
36001;SDS011;22070;50.922;5.430;2023-02-01T00:48:23;31.35;;;10.32;;
36001;SDS011;22070;50.922;5.430;2023-02-01T00:50:49;28.75;;;10.63;;
36001;SDS011;22070;50.922;5.430;2023-02-01T00:53:14;29.70;;;9.95;;
36001;SDS011;22070;50.922;5.430;2023-02-01T00:55:40;30.70;;;10.00;;
36001;SDS011;22070;50.922;5.430;2023-02-01T00:58:09;31.45;;;10.50;;
36001;SDS011;22070;50.922;5.430;2023-02-01T01:00:34;23.35;;;10.25;;
36001;SDS011;22070;50.922;5.430;2023-02-01T01:03:03;27.85;;;9.77;;
36001;SDS011;22070;50.922;5.430;2023-02-01T01:05:43;28.33;;;9.30;;
36001;SDS011;22070;50.922;5.430;2023-02-01T01:08:09;30.40;;;10.13;;
36001;SDS011;22070;50.922;5.430;2023-02-01T01:10:35;29.08;;;8.82;;
36001;SDS011;22070;50.922;5.430;2023-02-01T01:13:01;27.13;;;9.43;;
36001;SDS011;22070;50.922;5.430;2023-02-01T01:15:26;28.95;;;9.45;;
36001;SDS011;22070;50.922;5.430;2023-02-01T01:17:52;29.45;;;9.02;;
36001;SDS011;22070;50.922;5.430;2023-02-01T01:20:18;22.35;;;9.13;;
36001;SDS011;22070;50.922;5.430;2023-02-01T01:22:46;23.50;;;8.20;;
36001;SDS011;22070;50.922;5.430;2023-02-01T01:25:12;25.65;;;9.27;;
36001;SDS011;22070;50.922;5.430;2023-02-01T01:27:38;24.00;;;8.60;;
36001;SDS011;22070;50.922;5.430;2023-02-01T01:30:04;24.20;;;8.48;;
36001;SDS011;22070;50.922;5.430;2023-02-01T01:32:31;20.80;;;7.88;;
36001;SDS011;22070;50.922;5.430;2023-02-01T01:34:56;25.45;;;9.13;;
36001;SDS011;22070;50.922;5.430;2023-02-01T01:37:22;32.87;;;8.27;;
36001;SDS011;22070;50.922;5.430;2023-02-01T01:39:48;24.60;;;9.55;;
36001;SDS011;22070;50.922;5.430;2023-02-01T01:42:13;32.47;;;8.68;;
36001;SDS011;22070;50.922;5.430;2023-02-01T01:47:23;34.15;;;9.63;;
36001;SDS011;22070;50.922;5.430;2023-02-01T01:49:51;24.70;;;8.80;;
36001;SDS011;22070;50.922;5.430;2023-02-01T01:52:17;30.13;;;8.90;;
36001;SDS011;22070;50.922;5.430;2023-02-01T01:54:45;25.08;;;8.50;;
36001;SDS011;22070;50.922;5.430;2023-02-01T01:57:24;27.08;;;10.40;;
36001;SDS011;22070;50.922;5.430;2023-02-01T02:00:05;31.75;;;9.45;;
36001;SDS011;22070;50.922;5.430;2023-02-01T02:02:34;32.03;;;9.60;;
36001;SDS011;22070;50.922;5.430;2023-02-01T02:05:02;24.70;;;9.30;;
36001;SDS011;22070;50.922;5.430;2023-02-01T02:07:30;36.40;;;9.88;;
36001;SDS011;22070;50.922;5.430;2023-02-01T02:09:59;29.95;;;9.88;;
36001;SDS011;22070;50.922;5.430;2023-02-01T02:12:27;35.38;;;9.50;;
36001;SDS011;22070;50.922;5.430;2023-02-01T02:14:53;33.08;;;9.85;;
36001;SDS011;22070;50.922;5.430;2023-02-01T02:17:23;28.87;;;9.77;;
36001;SDS011;22070;50.922;5.430;2023-02-01T02:33:58;21.98;;;8.10;;
36001;SDS011;22070;50.922;5.430;2023-02-01T02:36:39;22.88;;;7.55;;
36001;SDS011;22070;50.922;5.430;2023-02-01T02:45:19;24.15;;;6.75;;
36001;SDS011;22070;50.922;5.430;2023-02-01T02:50:57;20.55;;;5.72;;
36001;SDS011;22070;50.922;5.430;2023-02-01T02:53:54;21.15;;;4.78;;
36001;SDS011;22070;50.922;5.430;2023-02-01T02:56:57;26.98;;;4.68;;
36001;SDS011;22070;50.922;5.430;2023-02-01T02:59:45;18.83;;;4.10;;
36001;SDS011;22070;50.922;5.430;2023-02-01T03:02:35;20.58;;;4.18;;
36001;SDS011;22070;50.922;5.430;2023-02-01T03:05:21;19.90;;;3.83;;
36001;SDS011;22070;50.922;5.430;2023-02-01T03:08:03;18.55;;;3.22;;
36001;SDS011;22070;50.922;5.430;2023-02-01T03:13:07;13.10;;;2.35;;
36001;SDS011;22070;50.922;5.430;2023-02-01T03:18:36;22.58;;;2.97;;
36001;SDS011;22070;50.922;5.430;2023-02-01T03:21:09;14.77;;;2.72;;
36001;SDS011;22070;50.922;5.430;2023-02-01T03:23:39;15.65;;;2.90;;
36001;SDS011;22070;50.922;5.430;2023-02-01T03:26:09;21.10;;;3.47;;
36001;SDS011;22070;50.922;5.430;2023-02-01T03:28:39;14.38;;;2.70;;
36001;SDS011;22070;50.922;5.430;2023-02-01T03:31:17;16.00;;;2.53;;
36001;SDS011;22070;50.922;5.430;2023-02-01T03:33:43;12.63;;;2.33;;
36001;SDS011;22070;50.922;5.430;2023-02-01T03:36:20;22.42;;;3.25;;
36001;SDS011;22070;50.922;5.430;2023-02-01T03:39:17;19.20;;;3.25;;
36001;SDS011;22070;50.922;5.430;2023-02-01T03:41:51;23.42;;;2.80;;
36001;SDS011;22070;50.922;5.430;2023-02-01T03:44:24;10.80;;;2.47;;
36001;SDS011;22070;50.922;5.430;2023-02-01T03:47:19;19.13;;;2.50;;
36001;SDS011;22070;50.922;5.430;2023-02-01T03:49:51;20.38;;;2.55;;
36001;SDS011;22070;50.922;5.430;2023-02-01T03:52:22;16.80;;;2.60;;
36001;SDS011;22070;50.922;5.430;2023-02-01T03:54:54;16.42;;;2.78;;
36001;SDS011;22070;50.922;5.430;2023-02-01T03:57:23;19.05;;;2.70;;
36001;SDS011;22070;50.922;5.430;2023-02-01T03:59:54;13.60;;;2.38;;
36001;SDS011;22070;50.922;5.430;2023-02-01T04:02:33;22.20;;;2.60;;
36001;SDS011;22070;50.922;5.430;2023-02-01T04:04:59;19.67;;;2.72;;
36001;SDS011;22070;50.922;5.430;2023-02-01T04:07:25;10.68;;;1.67;;
36001;SDS011;22070;50.922;5.430;2023-02-01T04:09:50;19.42;;;2.90;;
36001;SDS011;22070;50.922;5.430;2023-02-01T04:12:16;13.80;;;2.67;;
36001;SDS011;22070;50.922;5.430;2023-02-01T04:14:42;25.65;;;3.00;;
36001;SDS011;22070;50.922;5.430;2023-02-01T04:17:07;19.05;;;2.55;;
36001;SDS011;22070;50.922;5.430;2023-02-01T04:19:33;9.60;;;1.77;;
36001;SDS011;22070;50.922;5.430;2023-02-01T04:21:58;15.70;;;2.10;;
36001;SDS011;22070;50.922;5.430;2023-02-01T04:24:24;19.55;;;2.65;;
36001;SDS011;22070;50.922;5.430;2023-02-01T04:26:50;18.15;;;3.33;;
36001;SDS011;22070;50.922;5.430;2023-02-01T04:29:15;21.40;;;3.80;;
36001;SDS011;22070;50.922;5.430;2023-02-01T04:31:41;14.75;;;3.65;;
36001;SDS011;22070;50.922;5.430;2023-02-01T04:34:07;19.90;;;3.00;;
36001;SDS011;22070;50.922;5.430;2023-02-01T04:36:32;20.17;;;3.33;;
36001;SDS011;22070;50.922;5.430;2023-02-01T04:38:58;20.97;;;2.80;;
36001;SDS011;22070;50.922;5.430;2023-02-01T04:41:23;15.30;;;3.50;;
36001;SDS011;22070;50.922;5.430;2023-02-01T04:43:50;18.80;;;2.90;;
36001;SDS011;22070;50.922;5.430;2023-02-01T04:46:17;12.57;;;2.35;;
36001;SDS011;22070;50.922;5.430;2023-02-01T04:48:42;11.75;;;2.42;;
36001;SDS011;22070;50.922;5.430;2023-02-01T04:51:09;14.48;;;2.42;;
36001;SDS011;22070;50.922;5.430;2023-02-01T04:53:35;21.75;;;3.03;;
36001;SDS011;22070;50.922;5.430;2023-02-01T04:56:00;15.90;;;2.50;;
36001;SDS011;22070;50.922;5.430;2023-02-01T04:58:26;13.43;;;2.40;;
36001;SDS011;22070;50.922;5.430;2023-02-01T05:00:52;16.30;;;2.72;;
36001;SDS011;22070;50.922;5.430;2023-02-01T05:03:18;18.85;;;3.03;;
36001;SDS011;22070;50.922;5.430;2023-02-01T05:05:43;14.75;;;2.90;;
36001;SDS011;22070;50.922;5.430;2023-02-01T05:08:09;16.40;;;2.65;;
36001;SDS011;22070;50.922;5.430;2023-02-01T05:10:34;16.63;;;2.67;;
36001;SDS011;22070;50.922;5.430;2023-02-01T05:13:00;21.35;;;3.53;;
36001;SDS011;22070;50.922;5.430;2023-02-01T05:15:44;17.52;;;2.10;;
36001;SDS011;22070;50.922;5.430;2023-02-01T05:18:11;14.82;;;2.33;;
36001;SDS011;22070;50.922;5.430;2023-02-01T05:20:37;17.35;;;2.70;;
36001;SDS011;22070;50.922;5.430;2023-02-01T05:23:03;20.93;;;2.80;;
36001;SDS011;22070;50.922;5.430;2023-02-01T05:25:28;12.95;;;2.70;;
36001;SDS011;22070;50.922;5.430;2023-02-01T05:27:54;29.45;;;3.88;;
36001;SDS011;22070;50.922;5.430;2023-02-01T05:30:20;23.23;;;3.50;;
36001;SDS011;22070;50.922;5.430;2023-02-01T05:32:48;26.05;;;3.88;;
36001;SDS011;22070;50.922;5.430;2023-02-01T05:35:15;15.32;;;2.40;;
36001;SDS011;22070;50.922;5.430;2023-02-01T05:37:41;25.13;;;3.33;;
36001;SDS011;22070;50.922;5.430;2023-02-01T05:40:06;26.45;;;3.25;;
36001;SDS011;22070;50.922;5.430;2023-02-01T05:42:33;16.60;;;2.77;;
36001;SDS011;22070;50.922;5.430;2023-02-01T05:44:58;17.43;;;3.00;;
36001;SDS011;22070;50.922;5.430;2023-02-01T05:47:24;21.02;;;2.78;;
36001;SDS011;22070;50.922;5.430;2023-02-01T05:49:50;19.50;;;2.80;;
36001;SDS011;22070;50.922;5.430;2023-02-01T05:52:15;16.00;;;2.80;;
36001;SDS011;22070;50.922;5.430;2023-02-01T05:54:44;21.92;;;3.15;;
36001;SDS011;22070;50.922;5.430;2023-02-01T05:57:12;13.13;;;2.47;;
36001;SDS011;22070;50.922;5.430;2023-02-01T05:59:38;18.05;;;3.05;;
36001;SDS011;22070;50.922;5.430;2023-02-01T06:02:06;19.45;;;2.90;;
36001;SDS011;22070;50.922;5.430;2023-02-01T06:04:33;20.98;;;2.90;;
36001;SDS011;22070;50.922;5.430;2023-02-01T06:06:59;14.68;;;2.63;;
36001;SDS011;22070;50.922;5.430;2023-02-01T06:09:24;13.37;;;3.13;;
36001;SDS011;22070;50.922;5.430;2023-02-01T06:11:50;23.43;;;3.40;;
36001;SDS011;22070;50.922;5.430;2023-02-01T06:14:16;21.73;;;3.10;;
36001;SDS011;22070;50.922;5.430;2023-02-01T06:16:41;19.73;;;2.93;;
36001;SDS011;22070;50.922;5.430;2023-02-01T06:19:07;22.50;;;2.70;;
36001;SDS011;22070;50.922;5.430;2023-02-01T06:21:34;12.82;;;2.47;;
36001;SDS011;22070;50.922;5.430;2023-02-01T06:24:01;17.45;;;3.45;;
36001;SDS011;22070;50.922;5.430;2023-02-01T06:26:26;24.90;;;2.90;;
36001;SDS011;22070;50.922;5.430;2023-02-01T06:28:53;18.55;;;2.58;;
36001;SDS011;22070;50.922;5.430;2023-02-01T06:31:20;19.60;;;2.78;;
36001;SDS011;22070;50.922;5.430;2023-02-01T06:33:46;24.00;;;2.90;;
36001;SDS011;22070;50.922;5.430;2023-02-01T06:36:14;15.88;;;3.25;;
36001;SDS011;22070;50.922;5.430;2023-02-01T06:38:41;19.57;;;2.73;;
36001;SDS011;22070;50.922;5.430;2023-02-01T06:41:07;19.37;;;2.83;;
36001;SDS011;22070;50.922;5.430;2023-02-01T06:43:33;19.92;;;2.55;;
36001;SDS011;22070;50.922;5.430;2023-02-01T06:46:04;19.90;;;2.78;;
36001;SDS011;22070;50.922;5.430;2023-02-01T06:48:31;14.60;;;2.60;;
36001;SDS011;22070;50.922;5.430;2023-02-01T06:50:58;16.77;;;2.80;;
36001;SDS011;22070;50.922;5.430;2023-02-01T06:53:23;19.35;;;2.70;;
36001;SDS011;22070;50.922;5.430;2023-02-01T06:55:56;22.08;;;2.97;;
36001;SDS011;22070;50.922;5.430;2023-02-01T06:58:29;14.32;;;2.97;;
36001;SDS011;22070;50.922;5.430;2023-02-01T07:00:56;15.18;;;2.83;;
36001;SDS011;22070;50.922;5.430;2023-02-01T07:03:22;18.45;;;3.15;;
36001;SDS011;22070;50.922;5.430;2023-02-01T07:05:47;35.07;;;3.50;;
36001;SDS011;22070;50.922;5.430;2023-02-01T07:08:13;19.58;;;2.72;;
36001;SDS011;22070;50.922;5.430;2023-02-01T07:10:39;21.77;;;3.60;;
36001;SDS011;22070;50.922;5.430;2023-02-01T07:13:04;19.67;;;2.42;;
36001;SDS011;22070;50.922;5.430;2023-02-01T07:15:30;20.27;;;3.13;;
36001;SDS011;22070;50.922;5.430;2023-02-01T07:17:55;19.25;;;2.72;;
36001;SDS011;22070;50.922;5.430;2023-02-01T07:20:21;19.48;;;3.38;;
36001;SDS011;22070;50.922;5.430;2023-02-01T07:22:47;19.92;;;3.00;;
36001;SDS011;22070;50.922;5.430;2023-02-01T07:25:13;18.67;;;3.07;;
36001;SDS011;22070;50.922;5.430;2023-02-01T07:27:39;23.48;;;3.35;;
36001;SDS011;22070;50.922;5.430;2023-02-01T07:30:05;21.27;;;3.10;;
36001;SDS011;22070;50.922;5.430;2023-02-01T07:32:31;23.02;;;2.97;;
36001;SDS011;22070;50.922;5.430;2023-02-01T07:34:57;17.85;;;3.50;;
36001;SDS011;22070;50.922;5.430;2023-02-01T07:37:23;24.13;;;3.03;;
36001;SDS011;22070;50.922;5.430;2023-02-01T07:39:49;21.73;;;3.15;;
36001;SDS011;22070;50.922;5.430;2023-02-01T07:42:16;13.70;;;2.55;;
36001;SDS011;22070;50.922;5.430;2023-02-01T07:44:41;15.33;;;2.43;;
36001;SDS011;22070;50.922;5.430;2023-02-01T07:47:07;22.63;;;3.60;;
36001;SDS011;22070;50.922;5.430;2023-02-01T07:49:33;19.42;;;3.15;;
36001;SDS011;22070;50.922;5.430;2023-02-01T07:51:58;20.63;;;3.53;;
36001;SDS011;22070;50.922;5.430;2023-02-01T07:54:24;27.23;;;3.22;;
36001;SDS011;22070;50.922;5.430;2023-02-01T07:56:49;21.65;;;2.85;;
36001;SDS011;22070;50.922;5.430;2023-02-01T07:59:15;20.20;;;3.17;;
36001;SDS011;22070;50.922;5.430;2023-02-01T08:01:41;19.20;;;3.73;;
36001;SDS011;22070;50.922;5.430;2023-02-01T08:04:07;21.85;;;3.53;;
36001;SDS011;22070;50.922;5.430;2023-02-01T08:06:36;16.50;;;2.97;;
36001;SDS011;22070;50.922;5.430;2023-02-01T08:09:02;20.85;;;3.20;;
36001;SDS011;22070;50.922;5.430;2023-02-01T08:11:28;26.80;;;3.63;;
36001;SDS011;22070;50.922;5.430;2023-02-01T08:13:54;29.48;;;3.47;;
36001;SDS011;22070;50.922;5.430;2023-02-01T08:16:21;20.47;;;2.73;;
36001;SDS011;22070;50.922;5.430;2023-02-01T08:18:48;20.80;;;3.47;;
36001;SDS011;22070;50.922;5.430;2023-02-01T08:21:16;20.20;;;3.10;;
36001;SDS011;22070;50.922;5.430;2023-02-01T08:23:45;24.23;;;3.13;;
36001;SDS011;22070;50.922;5.430;2023-02-01T08:26:12;25.37;;;3.57;;
36001;SDS011;22070;50.922;5.430;2023-02-01T08:28:44;16.10;;;2.75;;
36001;SDS011;22070;50.922;5.430;2023-02-01T08:31:13;21.13;;;2.90;;
36001;SDS011;22070;50.922;5.430;2023-02-01T08:33:40;13.48;;;2.40;;
36001;SDS011;22070;50.922;5.430;2023-02-01T08:36:07;13.48;;;2.65;;
36001;SDS011;22070;50.922;5.430;2023-02-01T08:41:04;16.48;;;2.88;;
36001;SDS011;22070;50.922;5.430;2023-02-01T08:43:35;19.40;;;3.60;;
36001;SDS011;22070;50.922;5.430;2023-02-01T08:46:01;14.85;;;2.40;;
36001;SDS011;22070;50.922;5.430;2023-02-01T08:48:28;15.75;;;3.30;;
36001;SDS011;22070;50.922;5.430;2023-02-01T08:50:54;23.83;;;3.05;;
36001;SDS011;22070;50.922;5.430;2023-02-01T08:53:20;13.80;;;2.70;;
36001;SDS011;22070;50.922;5.430;2023-02-01T08:55:46;16.33;;;2.63;;
36001;SDS011;22070;50.922;5.430;2023-02-01T08:58:12;18.20;;;3.05;;
36001;SDS011;22070;50.922;5.430;2023-02-01T09:00:39;14.50;;;3.42;;
36001;SDS011;22070;50.922;5.430;2023-02-01T09:03:05;21.85;;;3.15;;
36001;SDS011;22070;50.922;5.430;2023-02-01T09:05:31;17.73;;;2.55;;
36001;SDS011;22070;50.922;5.430;2023-02-01T09:07:56;20.60;;;2.75;;
36001;SDS011;22070;50.922;5.430;2023-02-01T09:10:22;17.37;;;2.90;;
36001;SDS011;22070;50.922;5.430;2023-02-01T09:12:48;14.88;;;2.85;;
36001;SDS011;22070;50.922;5.430;2023-02-01T09:15:13;23.23;;;3.03;;
36001;SDS011;22070;50.922;5.430;2023-02-01T09:17:39;20.08;;;2.88;;
36001;SDS011;22070;50.922;5.430;2023-02-01T09:20:06;19.98;;;2.88;;
36001;SDS011;22070;50.922;5.430;2023-02-01T09:22:34;21.13;;;3.25;;
36001;SDS011;22070;50.922;5.430;2023-02-01T09:24:59;21.02;;;3.42;;
36001;SDS011;22070;50.922;5.430;2023-02-01T09:27:25;14.93;;;2.88;;
36001;SDS011;22070;50.922;5.430;2023-02-01T09:29:51;20.38;;;3.35;;
36001;SDS011;22070;50.922;5.430;2023-02-01T09:32:21;18.73;;;2.72;;
36001;SDS011;22070;50.922;5.430;2023-02-01T09:34:47;16.95;;;2.83;;
36001;SDS011;22070;50.922;5.430;2023-02-01T09:37:14;17.13;;;3.85;;
36001;SDS011;22070;50.922;5.430;2023-02-01T09:39:40;14.43;;;2.80;;
36001;SDS011;22070;50.922;5.430;2023-02-01T09:48:09;23.23;;;3.20;;
36001;SDS011;22070;50.922;5.430;2023-02-01T09:50:49;25.15;;;3.15;;
36001;SDS011;22070;50.922;5.430;2023-02-01T09:53:35;18.85;;;2.65;;
36001;SDS011;22070;50.922;5.430;2023-02-01T09:56:06;12.45;;;3.67;;
36001;SDS011;22070;50.922;5.430;2023-02-01T09:58:39;18.52;;;3.15;;
36001;SDS011;22070;50.922;5.430;2023-02-01T10:01:29;19.42;;;3.30;;
36001;SDS011;22070;50.922;5.430;2023-02-01T10:04:13;20.15;;;3.50;;
36001;SDS011;22070;50.922;5.430;2023-02-01T10:09:33;28.95;;;3.70;;
36001;SDS011;22070;50.922;5.430;2023-02-01T10:28:24;20.63;;;3.50;;
36001;SDS011;22070;50.922;5.430;2023-02-01T10:30:51;15.87;;;2.97;;
36001;SDS011;22070;50.922;5.430;2023-02-01T10:36:01;15.32;;;2.88;;
36001;SDS011;22070;50.922;5.430;2023-02-01T10:38:35;23.60;;;3.43;;
36001;SDS011;22070;50.922;5.430;2023-02-01T10:41:02;20.48;;;2.65;;
36001;SDS011;22070;50.922;5.430;2023-02-01T10:43:36;19.02;;;2.42;;
36001;SDS011;22070;50.922;5.430;2023-02-01T10:48:29;13.73;;;2.63;;
36001;SDS011;22070;50.922;5.430;2023-02-01T10:50:57;15.35;;;2.65;;
36001;SDS011;22070;50.922;5.430;2023-02-01T10:53:28;16.85;;;3.10;;
36001;SDS011;22070;50.922;5.430;2023-02-01T10:56:11;14.68;;;2.22;;
36001;SDS011;22070;50.922;5.430;2023-02-01T10:58:44;17.52;;;2.80;;
36001;SDS011;22070;50.922;5.430;2023-02-01T11:01:21;12.63;;;2.10;;
36001;SDS011;22070;50.922;5.430;2023-02-01T11:03:57;16.13;;;3.00;;
36001;SDS011;22070;50.922;5.430;2023-02-01T11:08:54;14.90;;;2.42;;
36001;SDS011;22070;50.922;5.430;2023-02-01T11:11:26;18.00;;;2.33;;
36001;SDS011;22070;50.922;5.430;2023-02-01T11:13:53;20.60;;;2.42;;
36001;SDS011;22070;50.922;5.430;2023-02-01T11:16:21;12.60;;;2.60;;
36001;SDS011;22070;50.922;5.430;2023-02-01T11:18:53;17.30;;;2.75;;
36001;SDS011;22070;50.922;5.430;2023-02-01T11:21:22;13.30;;;2.90;;
36001;SDS011;22070;50.922;5.430;2023-02-01T11:23:48;18.00;;;2.80;;
36001;SDS011;22070;50.922;5.430;2023-02-01T11:26:14;19.40;;;3.30;;
36001;SDS011;22070;50.922;5.430;2023-02-01T11:29:24;23.50;;;3.65;;
36001;SDS011;22070;50.922;5.430;2023-02-01T11:31:47;16.67;;;1.83;;
36001;SDS011;22070;50.922;5.430;2023-02-01T11:34:18;17.52;;;2.50;;
36001;SDS011;22070;50.922;5.430;2023-02-01T11:36:47;11.38;;;2.38;;
36001;SDS011;22070;50.922;5.430;2023-02-01T11:42:03;15.13;;;2.67;;
36001;SDS011;22070;50.922;5.430;2023-02-01T11:44:37;16.45;;;2.97;;
36001;SDS011;22070;50.922;5.430;2023-02-01T11:47:25;10.00;;;1.83;;
36001;SDS011;22070;50.922;5.430;2023-02-01T11:49:57;11.82;;;2.22;;
36001;SDS011;22070;50.922;5.430;2023-02-01T12:11:22;12.52;;;1.92;;
36001;SDS011;22070;50.922;5.430;2023-02-01T12:13:59;7.57;;;1.70;;
36001;SDS011;22070;50.922;5.430;2023-02-01T12:25:20;13.35;;;2.00;;
36001;SDS011;22070;50.922;5.430;2023-02-01T12:30:50;13.68;;;2.33;;
36001;SDS011;22070;50.922;5.430;2023-02-01T12:33:44;12.10;;;1.88;;
36001;SDS011;22070;50.922;5.430;2023-02-01T12:39:34;10.82;;;1.63;;
36001;SDS011;22070;50.922;5.430;2023-02-01T12:42:10;17.65;;;2.28;;
36001;SDS011;22070;50.922;5.430;2023-02-01T12:44:57;15.35;;;2.28;;
36001;SDS011;22070;50.922;5.430;2023-02-01T12:47:36;20.88;;;2.33;;
36001;SDS011;22070;50.922;5.430;2023-02-01T12:53:01;17.85;;;2.75;;
36001;SDS011;22070;50.922;5.430;2023-02-01T12:55:45;10.93;;;2.42;;
36001;SDS011;22070;50.922;5.430;2023-02-01T13:03:57;16.35;;;2.13;;
36001;SDS011;22070;50.922;5.430;2023-02-01T13:06:45;14.43;;;2.20;;
36001;SDS011;22070;50.922;5.430;2023-02-01T13:09:30;17.02;;;2.00;;
36001;SDS011;22070;50.922;5.430;2023-02-01T13:12:10;13.20;;;1.70;;
36001;SDS011;22070;50.922;5.430;2023-02-01T13:19:53;12.05;;;2.38;;
36001;SDS011;22070;50.922;5.430;2023-02-01T13:22:36;19.63;;;2.42;;
36001;SDS011;22070;50.922;5.430;2023-02-01T13:25:18;7.95;;;1.45;;
36001;SDS011;22070;50.922;5.430;2023-02-01T13:28:02;12.98;;;1.80;;
36001;SDS011;22070;50.922;5.430;2023-02-01T13:30:40;9.48;;;1.73;;
36001;SDS011;22070;50.922;5.430;2023-02-01T13:33:45;14.80;;;1.90;;
36001;SDS011;22070;50.922;5.430;2023-02-01T13:44:26;16.20;;;2.13;;
36001;SDS011;22070;50.922;5.430;2023-02-01T13:47:00;8.80;;;1.50;;
36001;SDS011;22070;50.922;5.430;2023-02-01T13:49:28;11.52;;;1.90;;
36001;SDS011;22070;50.922;5.430;2023-02-01T13:52:01;11.13;;;1.95;;
36001;SDS011;22070;50.922;5.430;2023-02-01T13:54:29;13.35;;;2.45;;
36001;SDS011;22070;50.922;5.430;2023-02-01T13:57:06;17.42;;;1.75;;
36001;SDS011;22070;50.922;5.430;2023-02-01T14:00:44;20.98;;;2.03;;
36001;SDS011;22070;50.922;5.430;2023-02-01T14:03:10;6.75;;;2.00;;
36001;SDS011;22070;50.922;5.430;2023-02-01T14:09:09;12.82;;;1.95;;
36001;SDS011;22070;50.922;5.430;2023-02-01T14:11:02;7.13;;;1.35;;
36001;SDS011;22070;50.922;5.430;2023-02-01T14:13:30;12.90;;;2.45;;
36001;SDS011;22070;50.922;5.430;2023-02-01T14:23:43;13.90;;;1.77;;
36001;SDS011;22070;50.922;5.430;2023-02-01T14:26:21;12.63;;;1.95;;
36001;SDS011;22070;50.922;5.430;2023-02-01T14:28:52;8.20;;;1.70;;
36001;SDS011;22070;50.922;5.430;2023-02-01T14:40:23;12.25;;;2.30;;
36001;SDS011;22070;50.922;5.430;2023-02-01T14:42:46;11.13;;;1.92;;
36001;SDS011;22070;50.922;5.430;2023-02-01T14:58:00;8.43;;;1.75;;
36001;SDS011;22070;50.922;5.430;2023-02-01T15:00:30;13.45;;;2.28;;
36001;SDS011;22070;50.922;5.430;2023-02-01T15:05:56;9.95;;;2.05;;
36001;SDS011;22070;50.922;5.430;2023-02-01T15:08:27;8.57;;;1.70;;
36001;SDS011;22070;50.922;5.430;2023-02-01T15:10:56;9.40;;;1.80;;
36001;SDS011;22070;50.922;5.430;2023-02-01T15:13:24;18.95;;;2.75;;
36001;SDS011;22070;50.922;5.430;2023-02-01T15:18:29;11.82;;;2.08;;
36001;SDS011;22070;50.922;5.430;2023-02-01T15:20:58;12.27;;;2.35;;
36001;SDS011;22070;50.922;5.430;2023-02-01T15:23:26;12.98;;;1.60;;
36001;SDS011;22070;50.922;5.430;2023-02-01T15:25:52;8.13;;;1.58;;
36001;SDS011;22070;50.922;5.430;2023-02-01T15:28:18;15.10;;;2.53;;
36001;SDS011;22070;50.922;5.430;2023-02-01T15:30:52;15.27;;;2.83;;
36001;SDS011;22070;50.922;5.430;2023-02-01T15:33:18;11.90;;;1.83;;
36001;SDS011;22070;50.922;5.430;2023-02-01T15:38:34;16.83;;;2.22;;
36001;SDS011;22070;50.922;5.430;2023-02-01T15:41:03;9.65;;;2.25;;
36001;SDS011;22070;50.922;5.430;2023-02-01T15:46:17;16.55;;;2.10;;
36001;SDS011;22070;50.922;5.430;2023-02-01T15:48:52;18.63;;;2.70;;
36001;SDS011;22070;50.922;5.430;2023-02-01T15:51:19;15.60;;;2.10;;
36001;SDS011;22070;50.922;5.430;2023-02-01T15:54:13;9.15;;;2.00;;
36001;SDS011;22070;50.922;5.430;2023-02-01T15:56:44;13.95;;;1.98;;
36001;SDS011;22070;50.922;5.430;2023-02-01T15:59:18;18.25;;;2.08;;
36001;SDS011;22070;50.922;5.430;2023-02-01T16:01:46;12.82;;;2.03;;
36001;SDS011;22070;50.922;5.430;2023-02-01T16:04:20;13.02;;;2.28;;
36001;SDS011;22070;50.922;5.430;2023-02-01T16:06:49;13.68;;;2.38;;
36001;SDS011;22070;50.922;5.430;2023-02-01T16:09:18;17.25;;;2.50;;
36001;SDS011;22070;50.922;5.430;2023-02-01T16:11:52;13.55;;;1.90;;
36001;SDS011;22070;50.922;5.430;2023-02-01T16:14:23;13.85;;;2.28;;
36001;SDS011;22070;50.922;5.430;2023-02-01T16:16:49;13.00;;;2.50;;
36001;SDS011;22070;50.922;5.430;2023-02-01T16:19:15;14.75;;;2.17;;
36001;SDS011;22070;50.922;5.430;2023-02-01T16:21:41;12.48;;;1.80;;
36001;SDS011;22070;50.922;5.430;2023-02-01T16:24:06;5.65;;;1.77;;
36001;SDS011;22070;50.922;5.430;2023-02-01T16:26:33;12.25;;;2.00;;
36001;SDS011;22070;50.922;5.430;2023-02-01T16:31:28;13.15;;;2.20;;
36001;SDS011;22070;50.922;5.430;2023-02-01T16:33:56;18.52;;;2.47;;
36001;SDS011;22070;50.922;5.430;2023-02-01T16:36:22;10.23;;;2.30;;
36001;SDS011;22070;50.922;5.430;2023-02-01T16:38:50;18.38;;;2.42;;
36001;SDS011;22070;50.922;5.430;2023-02-01T16:41:18;19.88;;;2.30;;
36001;SDS011;22070;50.922;5.430;2023-02-01T16:43:45;10.57;;;1.73;;
36001;SDS011;22070;50.922;5.430;2023-02-01T16:46:16;13.23;;;2.05;;
36001;SDS011;22070;50.922;5.430;2023-02-01T16:48:46;15.70;;;2.33;;
36001;SDS011;22070;50.922;5.430;2023-02-01T16:51:16;18.23;;;2.80;;
36001;SDS011;22070;50.922;5.430;2023-02-01T16:53:43;16.58;;;2.20;;
36001;SDS011;22070;50.922;5.430;2023-02-01T16:58:45;12.63;;;2.85;;
36001;SDS011;22070;50.922;5.430;2023-02-01T17:01:12;13.80;;;2.70;;
36001;SDS011;22070;50.922;5.430;2023-02-01T17:03:40;16.83;;;3.17;;
36001;SDS011;22070;50.922;5.430;2023-02-01T17:06:09;11.43;;;1.95;;
36001;SDS011;22070;50.922;5.430;2023-02-01T17:08:36;12.00;;;2.25;;
36001;SDS011;22070;50.922;5.430;2023-02-01T17:11:06;14.10;;;2.70;;
36001;SDS011;22070;50.922;5.430;2023-02-01T17:13:34;14.98;;;2.42;;
36001;SDS011;22070;50.922;5.430;2023-02-01T17:16:04;10.83;;;1.93;;
36001;SDS011;22070;50.922;5.430;2023-02-01T17:18:37;14.18;;;2.30;;
36001;SDS011;22070;50.922;5.430;2023-02-01T17:21:03;7.88;;;2.00;;
36001;SDS011;22070;50.922;5.430;2023-02-01T17:25:56;19.57;;;2.37;;
36001;SDS011;22070;50.922;5.430;2023-02-01T17:28:21;18.60;;;2.97;;
36001;SDS011;22070;50.922;5.430;2023-02-01T17:30:47;9.10;;;1.83;;
36001;SDS011;22070;50.922;5.430;2023-02-01T17:33:17;16.10;;;2.70;;
36001;SDS011;22070;50.922;5.430;2023-02-01T17:35:44;21.42;;;2.60;;
36001;SDS011;22070;50.922;5.430;2023-02-01T17:38:12;16.73;;;2.92;;
36001;SDS011;22070;50.922;5.430;2023-02-01T17:40:38;12.40;;;2.40;;
36001;SDS011;22070;50.922;5.430;2023-02-01T17:43:04;13.17;;;2.60;;
36001;SDS011;22070;50.922;5.430;2023-02-01T17:45:37;18.98;;;3.00;;
36001;SDS011;22070;50.922;5.430;2023-02-01T17:48:16;19.58;;;2.65;;